createdAt,value
2019-01-13T00:00:18.201Z,6.1
2019-01-13T00:05:20.788Z,6
2019-01-13T00:10:07.387Z,6
2019-01-13T00:15:22.560Z,6
2019-01-13T00:20:02.712Z,6
2019-01-13T00:25:02.720Z,6
2019-01-13T00:30:10.321Z,5.9
2019-01-13T00:35:32.984Z,5.8
2019-01-13T00:40:10.053Z,5.8
2019-01-13T00:45:05.059Z,5.8
2019-01-13T00:50:05.654Z,5.8
2019-01-13T00:55:10.612Z,5.8
2019-01-13T01:00:05.122Z,5.8
2019-01-13T01:05:20.858Z,5.8
2019-01-13T01:10:07.428Z,5.9
2019-01-13T01:15:09.957Z,5.8
2019-01-13T01:20:03.185Z,5.9
2019-01-13T01:25:05.596Z,5.8
2019-01-13T01:30:07.690Z,5.8
2019-01-13T01:35:25.414Z,5.8
2019-01-13T01:40:10.512Z,5.8
2019-01-13T01:45:05.619Z,5.8
2019-01-13T01:50:05.259Z,5.8
2019-01-13T01:55:05.327Z,5.8
2019-01-13T02:00:20.069Z,5.8
2019-01-13T02:10:05.370Z,5.6
2019-01-13T02:15:10.508Z,5.5
2019-01-13T02:20:07.623Z,5.5
2019-01-13T02:25:07.626Z,5.5
2019-01-13T02:30:02.634Z,5.5
2019-01-13T02:35:10.272Z,5.5
2019-01-13T02:40:05.327Z,5.6
2019-01-13T02:45:02.878Z,5.6
2019-01-13T02:50:12.991Z,5.6
2019-01-13T02:55:05.399Z,5.6
2019-01-13T03:00:10.148Z,5.4
2019-01-13T03:05:05.084Z,5.4
2019-01-13T03:10:05.187Z,5.4
2019-01-13T03:15:20.384Z,5.5
2019-01-13T03:20:12.662Z,5.5
2019-01-13T03:25:02.592Z,5.5
2019-01-13T03:30:05.149Z,5.6
2019-01-13T03:35:10.249Z,5.6
2019-01-13T03:40:07.832Z,5.7
2019-01-13T03:45:18.022Z,5.6
2019-01-13T03:50:18.378Z,5.7
2019-01-13T03:55:20.024Z,5.7
2019-01-13T04:00:08.187Z,5.7
2019-01-13T04:05:10.735Z,5.7
2019-01-13T04:10:03.310Z,5.7
2019-01-13T04:15:17.540Z,5.7
2019-01-13T04:20:05.240Z,5.7
2019-01-13T04:25:12.957Z,5.7
2019-01-13T04:30:10.545Z,5.7
2019-01-13T04:35:08.062Z,5.7
2019-01-13T04:40:02.561Z,5.7
2019-01-13T04:45:02.700Z,5.7
2019-01-13T04:50:05.246Z,5.7
2019-01-13T04:55:10.350Z,5.7
2019-01-13T05:00:07.455Z,5.7
2019-01-13T05:05:10.051Z,5.8
2019-01-13T05:10:07.651Z,5.6
2019-01-13T05:15:17.748Z,5.7
2019-01-13T05:20:10.467Z,5.6
2019-01-13T05:25:02.931Z,5.6
2019-01-13T05:30:02.963Z,5.6
2019-01-13T05:35:03.052Z,5.7
2019-01-13T05:40:32.910Z,5.8
2019-01-13T05:45:02.929Z,5.8
2019-01-13T05:50:05.540Z,5.8
2019-01-13T05:55:05.529Z,5.8
2019-01-13T06:00:22.817Z,5.8
2019-01-13T06:05:02.631Z,5.8
2019-01-13T06:10:30.951Z,2.7
2019-01-13T06:15:02.981Z,5.9
2019-01-13T06:30:05.678Z,6
2019-01-13T06:35:05.831Z,6
2019-01-13T06:40:20.034Z,6
2019-01-13T06:45:12.572Z,6
2019-01-13T06:50:05.364Z,6
2019-01-13T06:55:05.490Z,6
2019-01-13T07:05:02.550Z,6
2019-01-13T07:10:08.139Z,6.1
2019-01-13T07:15:03.190Z,6.1
2019-01-13T07:20:08.336Z,6.2
2019-01-13T07:25:05.848Z,6.2
2019-01-13T07:30:02.871Z,6.2
2019-01-13T07:35:38.322Z,6.2
2019-01-13T07:40:05.406Z,6.2
2019-01-13T07:45:05.481Z,6.2
2019-01-13T07:50:37.910Z,6.2
2019-01-13T07:55:05.465Z,6.3
2019-01-13T08:00:02.512Z,6.2
2019-01-13T08:05:05.070Z,6.3
2019-01-13T08:10:10.148Z,6.3
2019-01-13T08:15:10.666Z,6.3
2019-01-13T08:20:20.482Z,6.4
2019-01-13T08:25:15.461Z,6.4
2019-01-13T08:30:12.631Z,6.5
2019-01-13T08:35:07.379Z,6.5
2019-01-13T08:40:18.198Z,6.5
2019-01-13T08:45:02.929Z,6.5
2019-01-13T08:50:10.561Z,6.5
2019-01-13T08:55:02.970Z,6.5
2019-01-13T09:00:05.590Z,6.5
2019-01-13T09:05:05.628Z,6.5
2019-01-13T09:10:13.335Z,6.5
2019-01-13T09:15:03.284Z,6.5
2019-01-13T09:20:32.796Z,6.5
2019-01-13T09:25:02.779Z,6.5
2019-01-13T09:30:05.434Z,6.5
2019-01-13T09:35:05.568Z,6.4
2019-01-13T09:40:02.760Z,6.4
2019-01-13T09:45:25.587Z,6.3
2019-01-13T09:50:07.619Z,6.3
2019-01-13T09:55:05.166Z,6.4
2019-01-13T10:00:03.219Z,6.4
2019-01-13T10:05:15.911Z,6.4
2019-01-13T10:10:20.195Z,6.4
2019-01-13T10:15:13.842Z,6.4
2019-01-13T10:20:30.884Z,6.4
2019-01-13T10:25:02.940Z,6.4
2019-01-13T10:30:05.562Z,6.5
2019-01-13T10:35:10.812Z,6.4
2019-01-13T10:40:35.297Z,6.5
2019-01-13T10:45:02.319Z,6.5
2019-01-13T10:50:04.907Z,6.5
2019-01-13T10:55:07.547Z,6.5
2019-01-13T11:00:32.926Z,6.4
2019-01-13T11:05:08.004Z,6.4
2019-01-13T11:10:32.887Z,6.3
2019-01-13T11:15:10.511Z,6.3
2019-01-13T11:20:05.144Z,6.4
2019-01-13T11:25:25.396Z,6.3
2019-01-13T11:30:04.950Z,6.3
2019-01-13T11:35:02.491Z,6.3
2019-01-13T11:40:15.664Z,6.3
2019-01-13T11:45:20.645Z,6.3
2019-01-13T11:50:07.778Z,6.3
2019-01-13T11:55:07.829Z,6.2
2019-01-13T12:00:07.918Z,6.2
2019-01-13T12:05:06.861Z,6.2
2019-01-13T12:10:07.565Z,6.2
2019-01-13T12:15:10.215Z,6.3
2019-01-13T12:20:02.333Z,6.2
2019-01-13T12:25:27.702Z,6.3
2019-01-13T12:30:12.874Z,6.3
2019-01-13T12:35:05.304Z,6.3
2019-01-13T12:40:05.327Z,6.3
2019-01-13T12:45:05.437Z,6.4
2019-01-13T12:50:17.673Z,6.4
2019-01-13T12:55:02.508Z,6.4
2019-01-13T13:00:02.722Z,6.4
2019-01-13T13:05:22.975Z,6.6
2019-01-13T13:10:12.542Z,6.6
2019-01-13T13:15:04.993Z,6.7
2019-01-13T13:20:03.215Z,6.6
2019-01-13T13:25:36.008Z,6.8
2019-01-13T13:30:05.292Z,6.8
2019-01-13T13:35:05.301Z,6.9
2019-01-13T13:40:05.336Z,6.9
2019-01-13T13:45:15.606Z,6.9
2019-01-13T13:50:02.636Z,6.9
2019-01-13T13:55:12.768Z,6.9
2019-01-13T14:00:07.907Z,7
2019-01-13T14:05:08.520Z,7
2019-01-13T14:10:08.149Z,7.1
2019-01-13T14:15:15.770Z,7.1
2019-01-13T14:20:05.369Z,7.2
2019-01-13T14:25:17.965Z,7.2
2019-01-13T14:30:08.116Z,7.2
2019-01-13T14:35:05.658Z,7.3
2019-01-13T14:40:03.204Z,7.3
2019-01-13T14:45:07.397Z,7.4
2019-01-13T14:50:02.474Z,7.4
2019-01-13T14:55:15.183Z,7.4
2019-01-13T15:00:05.748Z,7.6
2019-01-13T15:05:15.006Z,7.6
2019-01-13T15:15:18.039Z,7.6
2019-01-13T15:20:02.521Z,7.7
2019-01-13T15:25:07.601Z,7.7
2019-01-13T15:30:05.227Z,7.7
2019-01-13T15:35:08.197Z,7.8
2019-01-13T15:40:10.287Z,7.8
2019-01-13T15:45:12.911Z,7.8
2019-01-13T15:50:02.942Z,7.9
2019-01-13T15:55:05.507Z,7.8
2019-01-13T16:00:17.711Z,7.8
2019-01-13T16:05:02.642Z,7.8
2019-01-13T16:10:10.794Z,7.9
2019-01-13T16:15:03.279Z,7.9
2019-01-13T16:20:27.721Z,7.9
2019-01-13T16:25:05.251Z,7.9
2019-01-13T16:30:13.383Z,7.9
2019-01-13T16:35:03.288Z,7.9
2019-01-13T16:40:38.190Z,7.9
2019-01-13T16:45:13.313Z,8
2019-01-13T16:50:09.934Z,8
2019-01-13T16:55:04.990Z,8
2019-01-13T17:00:10.636Z,8.1
2019-01-13T17:05:18.313Z,8.1
2019-01-13T17:10:02.936Z,8.1
2019-01-13T17:15:10.507Z,8
2019-01-13T17:20:02.652Z,8.1
2019-01-13T17:25:07.788Z,8.1
2019-01-13T17:30:05.371Z,8.1
2019-01-13T17:35:10.539Z,8
2019-01-13T17:40:13.206Z,8
2019-01-13T17:45:09.907Z,7.9
2019-01-13T17:50:25.877Z,7.8
2019-01-13T17:55:28.169Z,7.7
2019-01-13T18:00:10.817Z,7.7
2019-01-13T18:05:15.375Z,7.7
2019-01-13T18:10:07.842Z,7.5
2019-01-13T18:15:25.600Z,7.3
2019-01-13T18:20:17.782Z,6.9
2019-01-13T18:25:07.580Z,6.7
2019-01-13T18:30:30.352Z,6.5
2019-01-13T18:35:08.335Z,6.3
2019-01-13T18:40:17.891Z,6.3
2019-01-13T18:45:05.250Z,6.3
2019-01-13T18:50:12.626Z,5.7
2019-01-13T18:55:07.506Z,6.4
2019-01-13T19:00:07.493Z,6.4
2019-01-13T19:05:02.259Z,6.4
2019-01-13T19:10:10.787Z,6.5
2019-01-13T19:15:04.967Z,6.5
2019-01-13T19:20:05.474Z,6.5
2019-01-13T19:25:02.770Z,6.5
2019-01-13T19:30:10.191Z,6.6
2019-01-13T19:35:04.583Z,6.6
2019-01-13T19:40:10.770Z,6.6
2019-01-13T19:45:10.619Z,6.5
2019-01-13T19:50:12.602Z,6.4
2019-01-13T19:55:09.869Z,6.3
2019-01-13T20:00:07.751Z,6.3
2019-01-13T20:05:25.261Z,6.2
2019-01-13T20:10:02.476Z,6.2
2019-01-13T20:15:09.922Z,6.1
2019-01-13T20:20:10.410Z,6
2019-01-13T20:25:07.751Z,5.9
2019-01-13T20:30:02.611Z,5.9
2019-01-13T20:35:02.502Z,5.8
2019-01-13T20:40:05.347Z,5.8
2019-01-13T20:45:02.643Z,5.8
2019-01-13T20:50:07.542Z,5.8
2019-01-13T20:55:02.362Z,5.8
2019-01-13T21:00:13.352Z,5.9
2019-01-13T21:05:08.127Z,6
2019-01-13T21:10:04.901Z,6
2019-01-13T21:15:05.760Z,6
2019-01-13T21:20:15.283Z,6.1
2019-01-13T21:25:12.640Z,6.2
2019-01-13T21:30:02.496Z,6.2
2019-01-13T21:35:20.042Z,6.2
2019-01-13T21:40:07.350Z,6.2
2019-01-13T21:45:10.725Z,6.2
2019-01-13T21:50:02.580Z,6.2
2019-01-13T21:55:04.995Z,6.2
2019-01-13T22:00:15.452Z,6.2
2019-01-13T22:05:05.222Z,6.2
2019-01-13T22:10:05.091Z,6.2
2019-01-13T22:15:15.035Z,6.1
2019-01-13T22:20:05.480Z,6.1
2019-01-13T22:25:02.777Z,6.1
2019-01-13T22:30:05.152Z,6.1
2019-01-13T22:35:07.484Z,6.1
2019-01-13T22:40:02.731Z,6.1
2019-01-13T22:45:10.212Z,6.2
2019-01-13T22:50:08.093Z,6.2
2019-01-13T22:55:05.383Z,6.3
2019-01-13T23:00:03.265Z,6.2
2019-01-13T23:05:05.644Z,6.3
2019-01-13T23:10:05.449Z,6.3
2019-01-13T23:15:05.324Z,6.2
2019-01-13T23:20:03.236Z,6.1
2019-01-13T23:25:03.081Z,6.1
2019-01-13T23:30:07.999Z,6.1
2019-01-13T23:35:02.776Z,6.1
2019-01-13T23:40:05.622Z,5.9
2019-01-13T23:45:02.932Z,5.9
2019-01-13T23:50:02.804Z,5.8
2019-01-13T23:55:05.180Z,5.6
